LDZA/ZAG METAR and TAF weather

Enter ICAO airport designator
Station Type Date Time Source
LDZA METAR 2020/08/11 18:00 UTC NOAA

LDZA 111800Z 06009KT 010V100 CAVOK 26/19 Q1015 NOSIG


Station Type Date Time Source
LDZA Decoded METAR 2020/08/11 18:00 UTC NOAA

Zagreb / Pleso, Croatia (LDZA) 45-44N 016-04E 107M
Aug 11, 2020 - 02:00 PM EDT / 2020.08.11 1800 UTC
Wind: from the ENE (060 degrees) at 10 MPH (9 KT) (direction variable):0
Visibility: greater than 7 mile(s):0
Temperature: 78 F (26 C)
Dew Point: 66 F (19 C)
Relative Humidity: 65%
Pressure (altimeter): 29.97 in. Hg (1015 hPa)
ob: LDZA 111800Z 06009KT 010V100 CAVOK 26/19 Q1015 NOSIG
cycle: 18

Station Type Date Time Source
LDZA TAF 2020/08/11 18:27 UTC NOAA

TAF LDZA 111725Z 1118/1218 03008KT CAVOK TX29/1213Z TN19/1204Z PROB30
TEMPO 1118/1209 TSRA FEW030CB
TEMPO 1209/1218 TSRA FEW030CB SCT040

Example: see airport list